createdAt,value
2023-04-26T00:00:35.580Z,12.89
2023-04-26T00:03:08.082Z,12.91
2023-04-26T00:05:39.741Z,12.91
2023-04-26T00:08:13.139Z,12.86
2023-04-26T00:10:44.804Z,12.85
2023-04-26T00:13:16.575Z,12.87
2023-04-26T00:15:48.163Z,12.90
2023-04-26T00:18:19.710Z,12.94
2023-04-26T00:20:51.402Z,12.96
2023-04-26T00:23:23.052Z,12.96
2023-04-26T00:25:54.536Z,12.92
2023-04-26T00:28:26.128Z,12.86
2023-04-26T00:30:58.183Z,12.83
2023-04-26T00:33:30.669Z,12.85
2023-04-26T00:36:03.696Z,12.84
2023-04-26T00:38:35.248Z,12.85
2023-04-26T00:41:06.855Z,12.81
2023-04-26T00:43:38.558Z,12.76
2023-04-26T00:46:10.262Z,12.72
2023-04-26T00:48:42.172Z,12.72
2023-04-26T00:51:14.032Z,12.74
2023-04-26T00:53:45.554Z,12.78
2023-04-26T00:56:18.343Z,12.78
2023-04-26T00:58:50.185Z,12.76
2023-04-26T01:01:22.426Z,12.73
2023-04-26T01:03:54.168Z,12.75
2023-04-26T01:06:25.941Z,12.74
2023-04-26T01:08:58.629Z,12.74
2023-04-26T01:11:30.750Z,12.75
2023-04-26T01:14:04.044Z,12.76
2023-04-26T01:16:36.563Z,12.69
2023-04-26T01:19:12.610Z,12.65
2023-04-26T01:21:44.577Z,12.62
2023-04-26T01:24:16.104Z,12.59
2023-04-26T01:26:47.669Z,12.56
2023-04-26T01:29:19.762Z,12.58
2023-04-26T01:31:51.290Z,12.62
2023-04-26T01:34:23.640Z,12.60
2023-04-26T01:36:55.285Z,12.58
2023-04-26T01:39:27.024Z,12.50
2023-04-26T01:41:59.530Z,12.46
2023-04-26T01:44:31.135Z,12.49
2023-04-26T01:47:04.817Z,12.50
2023-04-26T01:49:36.648Z,12.40
2023-04-26T01:52:08.191Z,12.37
2023-04-26T01:54:39.780Z,12.36
2023-04-26T01:57:11.484Z,12.37
2023-04-26T01:59:42.992Z,12.35
2023-04-26T02:02:14.509Z,12.31
2023-04-26T02:04:46.159Z,12.30
2023-04-26T02:07:17.737Z,12.28
2023-04-26T02:09:50.984Z,12.23
2023-04-26T02:12:22.491Z,12.22
2023-04-26T02:14:54.017Z,12.23
2023-04-26T02:17:27.908Z,12.22
2023-04-26T02:19:59.453Z,12.20
2023-04-26T02:22:32.237Z,12.20
2023-04-26T02:25:04.300Z,12.21
2023-04-26T02:27:37.297Z,12.16
2023-04-26T02:30:10.113Z,12.12
2023-04-26T02:32:41.722Z,12.10
2023-04-26T02:35:13.304Z,12.09
2023-04-26T02:37:48.374Z,12.10
2023-04-26T02:40:20.700Z,12.06
2023-04-26T02:42:52.388Z,12.04
2023-04-26T02:45:24.082Z,12.05
2023-04-26T02:47:55.834Z,12.05
2023-04-26T02:50:27.470Z,11.80
2023-04-26T02:52:59.056Z,11.96
2023-04-26T02:55:31.278Z,11.94
2023-04-26T02:58:06.438Z,11.89
2023-04-26T03:00:36.279Z,11.86
2023-04-26T03:03:08.547Z,11.85
2023-04-26T03:05:40.328Z,11.86
2023-04-26T03:08:11.909Z,11.86
2023-04-26T03:10:43.445Z,11.81
2023-04-26T03:13:15.402Z,11.80
2023-04-26T03:15:47.974Z,11.81
2023-04-26T03:18:19.660Z,11.82
2023-04-26T03:20:51.704Z,11.83
2023-04-26T03:23:25.691Z,11.80
2023-04-26T03:25:57.532Z,11.82
2023-04-26T03:28:29.161Z,11.84
2023-04-26T03:31:01.044Z,11.88
2023-04-26T03:33:33.875Z,11.90
2023-04-26T03:36:06.566Z,11.89
2023-04-26T03:38:38.148Z,11.89
2023-04-26T03:41:10.088Z,11.92
2023-04-26T03:43:41.586Z,11.87
2023-04-26T03:46:13.489Z,11.85
2023-04-26T03:48:45.110Z,11.85
2023-04-26T03:51:16.779Z,11.83
2023-04-26T03:53:48.933Z,11.89
2023-04-26T03:56:20.542Z,11.90
2023-04-26T03:58:52.796Z,11.96
2023-04-26T04:01:25.942Z,11.89
2023-04-26T04:03:58.563Z,12.08
2023-04-26T04:06:31.192Z,12.09
2023-04-26T04:09:05.629Z,12.13
2023-04-26T04:11:37.356Z,12.19
2023-04-26T04:14:08.878Z,12.23
2023-04-26T04:16:40.471Z,12.27
2023-04-26T04:19:12.319Z,12.40
2023-04-26T04:21:46.005Z,12.51
2023-04-26T04:24:21.024Z,12.60
2023-04-26T04:26:53.097Z,12.59
2023-04-26T04:29:24.866Z,12.54
2023-04-26T04:31:56.623Z,12.59
2023-04-26T04:34:28.189Z,12.61
2023-04-26T04:37:00.187Z,12.66
2023-04-26T04:39:32.577Z,12.68
2023-04-26T04:42:14.248Z,12.71
2023-04-26T04:44:43.160Z,12.77
2023-04-26T04:47:15.613Z,12.77
2023-04-26T04:49:47.458Z,12.79
2023-04-26T04:52:22.111Z,12.77
2023-04-26T04:54:53.873Z,12.73
2023-04-26T04:57:25.914Z,12.73
2023-04-26T04:59:58.390Z,12.65
2023-04-26T05:02:32.808Z,12.67
2023-04-26T05:05:05.911Z,12.69
2023-04-26T05:07:37.917Z,12.71
2023-04-26T05:10:12.326Z,12.73
2023-04-26T05:12:43.929Z,12.74
2023-04-26T05:15:16.310Z,12.76
2023-04-26T05:17:48.331Z,12.71
2023-04-26T05:20:24.665Z,12.71
2023-04-26T05:23:10.217Z,12.75
2023-04-26T05:25:42.238Z,12.73
2023-04-26T05:28:15.547Z,12.67
2023-04-26T05:30:54.702Z,12.66
2023-04-26T05:33:31.091Z,12.75
2023-04-26T05:36:06.017Z,12.82
2023-04-26T05:38:38.502Z,12.88
2023-04-26T05:41:10.401Z,12.93
2023-04-26T05:43:42.506Z,13.01
2023-04-26T05:46:14.067Z,13.07
2023-04-26T05:48:47.866Z,13.09
2023-04-26T05:51:19.634Z,13.05
2023-04-26T05:53:53.044Z,13.09
2023-04-26T05:56:28.802Z,13.17
2023-04-26T05:59:01.236Z,13.21
2023-04-26T06:01:32.823Z,13.22
2023-04-26T06:04:06.708Z,13.27
2023-04-26T06:06:43.981Z,13.31
2023-04-26T06:09:20.206Z,13.43
2023-04-26T06:11:52.762Z,13.53
2023-04-26T06:14:30.814Z,13.61
2023-04-26T06:17:11.270Z,13.55
2023-04-26T06:19:57.630Z,13.59
2023-04-26T06:22:18.000Z,13.75
2023-04-26T06:24:53.423Z,13.79
2023-04-26T06:27:46.811Z,13.81
2023-04-26T06:30:10.526Z,13.88
2023-04-26T06:32:43.729Z,13.95
2023-04-26T06:35:15.660Z,14.05
2023-04-26T06:37:50.086Z,14.13
2023-04-26T06:40:22.150Z,14.16
2023-04-26T06:42:54.834Z,14.19
2023-04-26T06:45:43.628Z,14.19
2023-04-26T06:51:29.912Z,14.31
2023-04-26T06:54:20.910Z,14.29
2023-04-26T06:57:04.174Z,14.14
2023-04-26T06:59:41.619Z,14.11
2023-04-26T07:02:17.238Z,14.16
2023-04-26T07:04:52.971Z,14.20
2023-04-26T07:07:25.978Z,14.28
2023-04-26T07:09:57.666Z,14.31
2023-04-26T07:12:29.313Z,14.18
2023-04-26T07:15:01.629Z,14.10
2023-04-26T07:17:35.360Z,14.03
2023-04-26T07:20:12.269Z,14.10
2023-04-26T07:22:45.316Z,14.20
2023-04-26T07:25:17.002Z,14.23
2023-04-26T07:27:50.908Z,14.21
2023-04-26T07:31:14.694Z,14.27
2023-04-26T07:33:42.551Z,14.32
2023-04-26T07:36:14.623Z,14.54
2023-04-26T07:38:48.776Z,14.54
2023-04-26T07:41:20.566Z,14.47
2023-04-26T07:43:52.395Z,14.53
2023-04-26T07:46:24.244Z,14.57
2023-04-26T07:48:56.005Z,14.64
2023-04-26T07:51:30.747Z,14.75
2023-04-26T07:54:20.795Z,14.84
2023-04-26T07:56:59.965Z,14.97
2023-04-26T07:59:37.291Z,15.22
2023-04-26T08:02:21.736Z,15.33
2023-04-26T08:04:50.478Z,15.26
2023-04-26T08:07:25.536Z,15.20
2023-04-26T08:10:02.000Z,15.17
2023-04-26T08:12:35.834Z,15.17
2023-04-26T08:15:14.686Z,15.31
2023-04-26T08:17:56.774Z,15.39
2023-04-26T08:20:33.698Z,15.56
2023-04-26T08:23:14.731Z,15.82
2023-04-26T08:26:03.334Z,15.73
2023-04-26T08:28:38.978Z,15.82
2023-04-26T08:31:27.521Z,15.84
2023-04-26T08:34:13.658Z,15.94
2023-04-26T08:37:11.386Z,16.33
2023-04-26T08:40:22.178Z,16.84
2023-04-26T08:46:16.939Z,17.25
2023-04-26T08:52:41.122Z,16.46
2023-04-26T08:55:20.480Z,16.31
2023-04-26T08:58:10.629Z,15.90
2023-04-26T09:04:33.763Z,14.98
2023-04-26T09:07:12.820Z,14.64
2023-04-26T09:09:47.908Z,14.60
2023-04-26T09:12:31.885Z,14.80
2023-04-26T09:15:26.481Z,15.18
2023-04-26T09:18:05.598Z,15.42
2023-04-26T09:20:41.764Z,15.23
2023-04-26T09:23:13.591Z,15.09
2023-04-26T09:25:47.881Z,15.19
2023-04-26T09:28:22.592Z,15.28
2023-04-26T09:30:54.935Z,15.23
2023-04-26T09:33:26.847Z,15.39
2023-04-26T09:36:11.408Z,15.46
2023-04-26T09:38:44.473Z,15.22
2023-04-26T09:41:15.950Z,15.03
2023-04-26T09:43:48.641Z,14.72
2023-04-26T09:46:26.326Z,14.61
2023-04-26T09:49:06.476Z,14.57
2023-04-26T09:51:39.578Z,14.52
2023-04-26T09:54:15.754Z,14.77
2023-04-26T09:57:04.215Z,15.01
2023-04-26T09:59:43.131Z,15.16
2023-04-26T10:02:19.484Z,15.10
2023-04-26T10:04:54.962Z,15.08
2023-04-26T10:07:27.470Z,15.14
2023-04-26T10:10:04.900Z,15.35
2023-04-26T10:12:36.965Z,15.58
2023-04-26T10:15:09.987Z,15.61
2023-04-26T10:17:43.756Z,15.61
2023-04-26T10:20:16.787Z,15.60
2023-04-26T10:22:49.816Z,15.50
2023-04-26T10:25:21.627Z,15.45
2023-04-26T10:27:53.909Z,15.42
2023-04-26T10:30:25.758Z,15.50
2023-04-26T10:33:22.430Z,15.66
2023-04-26T10:36:22.543Z,15.97
2023-04-26T10:39:11.243Z,16.46
2023-04-26T10:41:42.899Z,16.92
2023-04-26T10:44:32.972Z,17.08
2023-04-26T10:47:06.830Z,16.89
2023-04-26T10:49:48.691Z,16.53
2023-04-26T10:52:22.636Z,16.10
2023-04-26T10:54:55.309Z,15.72
2023-04-26T10:57:28.935Z,15.51
2023-04-26T11:00:18.243Z,15.66
2023-04-26T11:02:56.346Z,16.05
2023-04-26T11:05:46.004Z,16.68
2023-04-26T11:08:18.282Z,16.73
2023-04-26T11:10:53.834Z,17.09
2023-04-26T11:13:25.344Z,17.84
2023-04-26T11:16:04.463Z,18.64
2023-04-26T11:18:37.724Z,19.51
2023-04-26T11:21:10.053Z,19.98
2023-04-26T11:23:41.841Z,19.54
2023-04-26T11:26:16.508Z,18.79
2023-04-26T11:28:51.988Z,17.96
2023-04-26T11:31:23.033Z,17.05
2023-04-26T11:33:54.898Z,16.23
2023-04-26T11:36:27.468Z,15.73
2023-04-26T11:38:59.126Z,15.34
2023-04-26T11:41:34.015Z,14.91
2023-04-26T11:44:08.370Z,15.11
2023-04-26T11:46:40.066Z,16.66
2023-04-26T11:49:12.798Z,17.10
2023-04-26T11:51:44.972Z,17.45
2023-04-26T11:54:30.305Z,17.76
2023-04-26T11:57:03.094Z,17.92
2023-04-26T11:59:34.494Z,17.95
2023-04-26T12:02:11.376Z,18.35
2023-04-26T12:04:44.392Z,18.26
2023-04-26T12:07:17.698Z,18.10
2023-04-26T12:09:50.795Z,19.30
2023-04-26T12:12:25.636Z,19.81
2023-04-26T12:15:04.141Z,19.29
2023-04-26T12:17:35.894Z,19.06
2023-04-26T12:20:16.087Z,20.52
2023-04-26T12:22:58.851Z,21.56
2023-04-26T12:25:32.325Z,22.31
2023-04-26T12:28:05.058Z,21.32
2023-04-26T12:30:36.491Z,20.52
2023-04-26T12:33:17.232Z,19.63
2023-04-26T12:35:41.609Z,18.78
2023-04-26T12:38:13.650Z,18.08
2023-04-26T12:40:45.721Z,17.50
2023-04-26T12:43:17.619Z,17.43
2023-04-26T12:45:49.059Z,17.37
2023-04-26T12:48:20.844Z,17.08
2023-04-26T12:50:52.494Z,16.82
2023-04-26T12:53:25.069Z,16.64
2023-04-26T12:55:57.013Z,16.35
2023-04-26T12:58:29.299Z,16.26
2023-04-26T13:01:01.200Z,16.18
2023-04-26T13:03:32.804Z,16.04
2023-04-26T13:06:07.206Z,15.82
2023-04-26T13:08:38.726Z,15.66
2023-04-26T13:11:10.102Z,15.79
2023-04-26T13:13:44.860Z,15.96
2023-04-26T13:16:16.997Z,16.05
2023-04-26T13:18:48.597Z,16.31
2023-04-26T13:21:20.197Z,18.14
2023-04-26T13:23:51.781Z,20.23
2023-04-26T13:26:24.391Z,21.73
2023-04-26T13:28:56.950Z,22.88
2023-04-26T13:31:29.154Z,23.72
2023-04-26T13:34:00.940Z,23.97
2023-04-26T13:36:33.173Z,24.02
2023-04-26T13:39:07.399Z,23.99
2023-04-26T13:41:38.897Z,23.57
2023-04-26T13:44:10.690Z,23.84
2023-04-26T13:46:42.578Z,24.34
2023-04-26T13:49:14.639Z,24.80
2023-04-26T13:51:46.158Z,25.42
2023-04-26T13:54:17.841Z,24.88
2023-04-26T13:56:49.413Z,24.64
2023-04-26T13:59:20.934Z,24.48
2023-04-26T14:01:54.710Z,24.04
2023-04-26T14:04:28.351Z,22.83
2023-04-26T14:07:08.049Z,21.69
2023-04-26T14:09:39.581Z,21.36
2023-04-26T14:12:11.080Z,22.35
2023-04-26T14:14:42.643Z,23.32
2023-04-26T14:17:14.152Z,24.20
2023-04-26T14:19:45.564Z,24.38
2023-04-26T14:22:19.960Z,24.31
2023-04-26T14:24:51.662Z,23.87
2023-04-26T14:27:26.710Z,22.69
2023-04-26T14:29:58.277Z,21.65
2023-04-26T14:32:34.825Z,20.72
2023-04-26T14:35:07.434Z,21.02
2023-04-26T14:37:39.183Z,21.90
2023-04-26T14:40:11.569Z,22.50
2023-04-26T14:42:48.208Z,22.55
2023-04-26T14:45:22.267Z,22.41
2023-04-26T14:47:53.624Z,22.60
2023-04-26T14:50:25.329Z,22.49
2023-04-26T14:52:57.483Z,22.28
2023-04-26T14:55:33.489Z,22.09
2023-04-26T14:58:05.084Z,21.82
2023-04-26T15:00:38.494Z,21.82
2023-04-26T15:03:10.461Z,21.65
2023-04-26T15:05:42.197Z,21.24
2023-04-26T15:08:14.808Z,21.15
2023-04-26T15:10:47.056Z,21.02
2023-04-26T15:13:18.932Z,20.92
2023-04-26T15:15:50.798Z,20.73
2023-04-26T15:18:22.619Z,20.59
2023-04-26T15:20:54.209Z,20.62
2023-04-26T15:23:26.144Z,20.52
2023-04-26T15:25:59.299Z,20.44
2023-04-26T15:28:31.226Z,20.30
2023-04-26T15:31:10.088Z,20.06
2023-04-26T15:33:44.175Z,19.78
2023-04-26T15:36:16.661Z,19.39
2023-04-26T15:41:31.378Z,18.43
2023-04-26T15:46:43.901Z,17.72
2023-04-26T15:49:17.960Z,17.45
2023-04-26T15:51:55.682Z,17.36
2023-04-26T15:54:27.813Z,17.32
2023-04-26T15:56:59.811Z,17.22
2023-04-26T15:59:33.526Z,17.09
2023-04-26T16:02:08.077Z,16.98
2023-04-26T16:04:49.018Z,16.90
2023-04-26T16:07:20.868Z,16.84
2023-04-26T16:09:57.352Z,16.77
2023-04-26T16:12:31.663Z,16.71
2023-04-26T16:15:12.649Z,16.52
2023-04-26T16:17:46.744Z,16.63
2023-04-26T16:20:22.400Z,16.60
2023-04-26T16:22:54.310Z,16.49
2023-04-26T16:25:26.471Z,16.51
2023-04-26T16:28:02.465Z,16.50
2023-04-26T16:30:36.060Z,16.46
2023-04-26T16:33:10.328Z,16.40
2023-04-26T16:35:42.456Z,16.36
2023-04-26T16:38:14.096Z,16.31
2023-04-26T16:40:46.163Z,16.24
2023-04-26T16:43:21.699Z,16.18
2023-04-26T16:46:05.611Z,16.09
2023-04-26T16:48:36.728Z,16.02
2023-04-26T16:51:29.859Z,15.95
2023-04-26T16:54:09.122Z,15.85
2023-04-26T16:56:40.865Z,15.76
2023-04-26T16:59:16.305Z,15.70
2023-04-26T17:01:49.380Z,15.66
2023-04-26T17:04:28.731Z,15.56
2023-04-26T17:07:12.923Z,15.46
2023-04-26T17:09:47.399Z,15.35
2023-04-26T17:12:20.379Z,15.16
2023-04-26T17:14:51.752Z,15.05
2023-04-26T17:17:23.382Z,15.00
2023-04-26T17:19:55.353Z,14.91
2023-04-26T17:22:26.736Z,14.84
2023-04-26T17:24:58.663Z,14.78
2023-04-26T17:27:33.057Z,14.67
2023-04-26T17:30:05.706Z,14.58
2023-04-26T17:32:43.636Z,14.50
2023-04-26T17:35:15.938Z,14.43
2023-04-26T17:37:50.436Z,14.35
2023-04-26T17:40:22.193Z,14.28
2023-04-26T17:42:55.253Z,14.21
2023-04-26T17:45:29.957Z,14.13
2023-04-26T17:48:01.717Z,14.08
2023-04-26T17:50:33.257Z,13.98
2023-04-26T17:53:06.081Z,13.91
2023-04-26T17:55:38.029Z,13.91
2023-04-26T17:58:09.760Z,13.89
2023-04-26T18:00:41.337Z,13.87
2023-04-26T18:03:12.848Z,13.83
2023-04-26T18:05:44.645Z,13.82
2023-04-26T18:08:16.106Z,13.78
2023-04-26T18:10:50.636Z,13.75
2023-04-26T18:13:22.245Z,13.71
2023-04-26T18:15:57.331Z,13.66
2023-04-26T18:18:28.933Z,13.66
2023-04-26T18:21:04.425Z,13.64
2023-04-26T18:23:39.189Z,13.64
2023-04-26T18:26:10.689Z,13.60
2023-04-26T18:28:43.630Z,13.57
2023-04-26T18:31:15.202Z,13.56
2023-04-26T18:33:50.486Z,13.54
2023-04-26T18:36:21.941Z,13.50
2023-04-26T18:38:57.523Z,13.45
2023-04-26T18:41:28.970Z,13.41
2023-04-26T18:44:00.388Z,13.41
2023-04-26T18:46:34.842Z,13.41
2023-04-26T18:49:06.376Z,13.40
2023-04-26T18:51:41.694Z,13.38
2023-04-26T18:54:13.400Z,13.36
2023-04-26T18:56:45.172Z,13.37
2023-04-26T18:59:16.750Z,13.39
2023-04-26T19:01:49.317Z,13.39
2023-04-26T19:04:21.875Z,13.38
2023-04-26T19:06:53.528Z,13.34
2023-04-26T19:09:25.167Z,13.28
2023-04-26T19:11:56.574Z,13.23
2023-04-26T19:14:28.042Z,13.19
2023-04-26T19:17:00.002Z,13.11
2023-04-26T19:19:31.576Z,13.02
2023-04-26T19:22:03.475Z,12.94
2023-04-26T19:24:35.055Z,12.88
2023-04-26T19:27:06.586Z,12.83
2023-04-26T19:29:37.931Z,12.79
2023-04-26T19:32:10.575Z,12.75
2023-04-26T19:34:42.090Z,12.70
2023-04-26T19:37:13.535Z,12.68
2023-04-26T19:39:45.012Z,12.65
2023-04-26T19:42:16.558Z,12.62
2023-04-26T19:44:48.101Z,12.57
2023-04-26T19:47:20.335Z,12.53
2023-04-26T19:50:00.239Z,12.51
2023-04-26T19:52:45.220Z,12.48
2023-04-26T19:55:20.243Z,12.43
2023-04-26T20:01:01.207Z,12.37
2023-04-26T20:03:37.717Z,12.33
2023-04-26T20:06:17.966Z,12.31
2023-04-26T20:11:47.948Z,12.21
2023-04-26T20:14:25.868Z,12.09
2023-04-26T20:16:54.172Z,11.99
2023-04-26T20:19:26.452Z,11.89
2023-04-26T20:21:58.242Z,11.81
2023-04-26T20:24:40.290Z,11.75
2023-04-26T20:27:12.037Z,11.69
2023-04-26T20:29:45.200Z,11.66
2023-04-26T20:32:20.873Z,11.63
2023-04-26T20:34:53.344Z,11.60
2023-04-26T20:37:33.396Z,11.55
2023-04-26T20:40:11.385Z,11.50
2023-04-26T20:42:47.704Z,11.47
2023-04-26T20:45:21.093Z,11.44
2023-04-26T20:47:54.884Z,11.42
2023-04-26T20:50:27.365Z,11.39
2023-04-26T20:52:59.235Z,11.35
2023-04-26T20:55:37.341Z,11.32
2023-04-26T20:58:11.128Z,11.29
2023-04-26T21:00:43.251Z,11.27
2023-04-26T21:03:15.297Z,11.22
2023-04-26T21:05:47.235Z,11.20
2023-04-26T21:08:22.336Z,11.17
2023-04-26T21:10:53.976Z,11.14
2023-04-26T21:13:25.876Z,11.16
2023-04-26T21:15:58.196Z,11.13
2023-04-26T21:18:34.116Z,11.12
2023-04-26T21:21:09.287Z,11.10
2023-04-26T21:23:41.046Z,11.09
2023-04-26T21:26:35.232Z,11.06
2023-04-26T21:29:09.501Z,11.06
2023-04-26T21:31:41.363Z,11.04
2023-04-26T21:34:14.491Z,11.00
2023-04-26T21:36:47.345Z,10.97
2023-04-26T21:39:19.140Z,10.94
2023-04-26T21:41:50.860Z,10.95
2023-04-26T21:44:22.578Z,10.96
2023-04-26T21:46:54.304Z,11.01
2023-04-26T21:49:26.322Z,11.03
2023-04-26T21:51:58.114Z,11.05
2023-04-26T21:54:29.962Z,11.04
2023-04-26T21:57:08.090Z,11.06
2023-04-26T21:59:41.399Z,11.05
2023-04-26T22:02:13.280Z,11.03
2023-04-26T22:04:45.160Z,11.02
2023-04-26T22:07:16.996Z,10.98
2023-04-26T22:09:48.759Z,10.96
2023-04-26T22:12:20.841Z,10.94
2023-04-26T22:14:52.574Z,10.93
2023-04-26T22:17:24.533Z,10.94
2023-04-26T22:19:56.620Z,10.93
2023-04-26T22:22:28.654Z,10.89
2023-04-26T22:25:00.365Z,10.84
2023-04-26T22:27:35.691Z,10.81
2023-04-26T22:30:24.025Z,10.79
2023-04-26T22:32:43.932Z,10.76
2023-04-26T22:35:15.717Z,10.72
2023-04-26T22:37:47.471Z,10.69
2023-04-26T22:40:19.383Z,10.67
2023-04-26T22:42:51.530Z,10.66
2023-04-26T22:45:23.695Z,10.66
2023-04-26T22:47:55.423Z,10.66
2023-04-26T22:50:27.377Z,10.63
2023-04-26T22:53:04.715Z,10.62
2023-04-26T22:55:36.538Z,10.58
2023-04-26T22:58:08.164Z,10.55
2023-04-26T23:00:39.853Z,10.56
2023-04-26T23:03:11.784Z,10.53
2023-04-26T23:05:43.601Z,10.53
2023-04-26T23:08:15.337Z,10.50
2023-04-26T23:10:49.990Z,10.48
2023-04-26T23:13:21.666Z,10.45
2023-04-26T23:15:53.396Z,10.40
2023-04-26T23:18:26.862Z,10.36
2023-04-26T23:20:58.857Z,10.31
2023-04-26T23:23:30.726Z,10.27
2023-04-26T23:26:06.472Z,10.23
2023-04-26T23:28:37.908Z,10.22
2023-04-26T23:31:12.682Z,10.19
2023-04-26T23:33:44.380Z,10.15
2023-04-26T23:36:16.136Z,10.11
2023-04-26T23:38:47.871Z,10.10
2023-04-26T23:41:19.583Z,10.08
2023-04-26T23:43:51.221Z,10.06
2023-04-26T23:46:22.965Z,10.04
2023-04-26T23:48:54.653Z,10.02
2023-04-26T23:51:29.708Z,10.01
2023-04-26T23:54:04.901Z,10.02
2023-04-26T23:56:36.716Z,10.03
2023-04-26T23:59:08.582Z,10.03
